Home   Weather   United Kingdom   Aberdeen   Past weeks
Flag for United Kingdom

Past Weather in Aberdeen, Scotland, United Kingdom — Yesterday and Last 2 Weeks

Currently: 59 °F. Cool. (Weather station: Aberdeen / Dyce, United Kingdom). See more current weather

Past Weather in Aberdeen — Graph

°F

Aberdeen Temperature Yesterday

Maximum temperature yesterday: 77 °F (at 3:20 pm)
Minimum temperature yesterday: 61 °F (at 5:50 am)
Average temperature yesterday: 69 °F

High & Low Weather Summary for the Past Weeks

 TemperatureHumidityPressure
High82 °F (Aug 10, 3:20 pm)100% (Jul 28, 1:50 am)30.33 "Hg (Jul 28, 1:50 am)
Low45 °F (Aug 5, 1:50 am)28% (Aug 10, 5:50 pm)29.50 "Hg (Aug 2, 5:50 am)
Average61 °F74%30.02 "Hg
* Reported Jul 26 10:20 pm — Aug 10 10:20 pm, Aberdeen. Weather by CustomWeather, © 2022

Note: Actual official high and low records may vary slightly from our data, if they occured in-between our weather recording intervals... More about our weather records

Aberdeen Weather History for the Previous 24 Hours

Scroll right to see more
 ConditionsComfort  
Time TempWeatherWind HumidityBarometerVisibility
10:20 pm
Wed, Aug 10
63 °FMild.1 mph73%30.21 "HgN/A
9:50 pm64 °FMild.2 mph68%30.21 "HgN/A
9:20 pm66 °FMild.2 mph68%30.18 "HgN/A
8:20 pm70 °FMild.3 mph60%30.18 "HgN/A
7:50 pm73 °FMild.7 mph57%30.18 "HgN/A
7:20 pm79 °FPleasantly warm.8 mph34%30.15 "HgN/A
6:50 pm81 °FPleasantly warm.9 mph30%30.15 "HgN/A
6:20 pm82 °FPleasantly warm.10 mph28%30.15 "HgN/A
5:50 pm82 °FPleasantly warm.12 mph28%30.15 "HgN/A
5:20 pm81 °FPleasantly warm.15 mph34%30.15 "HgN/A
4:50 pm81 °FPleasantly warm.14 mph37%30.15 "HgN/A
4:20 pm82 °FPleasantly warm.14 mph35%30.15 "HgN/A
3:50 pm82 °FPleasantly warm.17 mph37%30.15 "HgN/A
3:20 pm82 °FPleasantly warm.15 mph37%30.15 "HgN/A
2:20 pm81 °FWarm.12 mph42%30.18 "HgN/A
1:50 pm79 °FWarm.10 mph48%30.18 "HgN/A
1:20 pm79 °FWarm.14 mph45%30.18 "HgN/A
12:50 pm79 °FWarm.9 mph45%30.21 "HgN/A
12:20 pm79 °FWarm.12 mph45%30.21 "HgN/A
11:50 am77 °FWarm.12 mph44%30.21 "HgN/A
11:20 am75 °FMild.14 mph47%30.21 "HgN/A
10:50 am73 °FMild.14 mph50%30.24 "HgN/A
9:50 am70 °FMild.13 mph60%30.24 "HgN/A
9:20 am70 °FMild.12 mph60%30.24 "HgN/A
8:50 am68 °FMild.9 mph64%30.24 "HgN/A
8:20 am66 °FMild.7 mph64%30.27 "HgN/A
7:50 am64 °FMild.3 mph68%30.27 "HgN/A
6:50 am59 °FCool.5 mph77%30.27 "HgN/A
6:20 am57 °FCool.6 mph77%30.27 "HgN/A
5:50 am57 °FCool.3 mph77%30.27 "HgN/A
5:20 am59 °FCool.3 mph72%30.27 "HgN/A
4:50 am54 °FCool.5 mph82%30.27 "HgN/A
4:20 am55 °FCool.5 mph77%30.27 "HgN/A
3:20 am61 °FCool.5 mph68%30.27 "HgN/A
2:50 am59 °FCool.7 mph77%30.27 "HgN/A
2:20 am59 °FCool.2 mph77%30.30 "HgN/A
1:50 am59 °FCool.2 mph77%30.30 "HgN/A
11:50 pm
Tue, Aug 9
63 °FMild.1 mph68%30.30 "HgN/A
11:20 pm63 °FMild.5 mph73%30.30 "HgN/A
Weather by CustomWeather, © 2022

See weather overview